Pagina principale
METAR-TAF:

METAR-TAF

Aeroporti :

Aeroporto di Trieste-Ronchi dei Legionari

Trieste / Ronchi dei Legionari, Italia

latitudine: 45-49N, longitudine: 013-29E, altezza: 12 m

Osservazione

Il bollettino è stato emesso 10 minuti fa, alle 12:50 UTC
Vento 4 kt da ovest
Temperature 10°C
Umidità 71%
Pressione 1023 hPa
Visibilità 10 km o più
Nubi sparse ad un'altezza di 4000 ft
Nubi sparse ad un'altezza di 7000 ft

METAR: LIPQ 061250Z 28004KT 9999 SCT040 SCT070 10/05 Q1023

Ora: 14:00 (13:00 UTC)

Previsione

Il bollettino è stato emesso 2 ore e 0 minuti fa, alle 11:00 UTC
Previsione valida dal 06 alle 12 UTC al 07 alle 12 UTC
Vento 4 kt da direzioni variabili
Visibilità 10 km o più
Nubi sparse ad un'altezza di 4000 ft

TAF: LIPQ 061100Z 0612/0712 VRB04KT 9999 SCT040

Osservazioni e previsioni meteorologiche di più di 4000 aeroporti (messaggi METAR e TAF).

Le stazioni disponibili sono rappresentate dai dischi gialli e rossi sulla carta.

Puntare il mouse per vedere il nome della stazione.

Clicca sopra per visualizzare le osservazioni e previsioni meteorologiche.

Per cambiare la mappa : fare clic sui pulsanti verdi con una croce nera per ingrandire, il pulsante verde con un trattino per diminuire, o sulla freccia verde per le mappe adiacenti.


METAR-TAF: